CheckWX is a tool to help pilots better visualize weather data.  It is not intended as a substitute for an official pre-flight weather briefing.

10:29:11 UTC

KASX METAR
John F Kennedy Memorial Airport
Ashland, Wisconsin, USA
Current

36 mins ago

KASX 210953Z AUTO 24006KT 10SM OVC042 01/M01 A3004 RMK AO2 SLP182 T00111006
Observed
Mar-21 @ 09:53 UTC
Wind
  • 240° at 6 KTS
Visibility
10 SM
Flight Rules
VFR
Cloud Levels
  • Overcast at 4,200' AGL
Temperature
C / 34°F
Dewpoint
-1°C / 30°F
Humidity
87%
Altimeter
30.04" Hg
Pressure
1018.2 hPa
Previous

2 hours ago

KASX 210853Z AUTO 22005KT 10SM OVC041 01/00 A3005 RMK AO2 SLP186 T00110000 58006
Observed
Mar-21 @ 08:53 UTC
Wind
  • 220° at 5 KTS
Visibility
10 SM
Flight Rules
VFR
Cloud Levels
  • Overcast at 4,100' AGL
Temperature
C / 34°F
Dewpoint
C / 32°F
Humidity
93%
Altimeter
30.05" Hg
Pressure
1018.6 hPa
Previous

3 hours ago

KASX 210753Z AUTO 22003KT 10SM OVC042 01/01 A3007 RMK AO2 SLP192 T00060006
Observed
Mar-21 @ 07:53 UTC
Wind
  • 220° at 3 KTS
Visibility
10 SM
Flight Rules
VFR
Cloud Levels
  • Overcast at 4,200' AGL
Temperature
C / 34°F
Dewpoint
C / 34°F
Humidity
100%
Altimeter
30.07" Hg
Pressure
1019.2 hPa